Terminal Aerodrome Forecast
Issued by NWS Sterling, VA

Current Version | Previous Version | Graphics & Text | Print | Product List | Glossary On
Versions: 1 2 3 4 5 6 7 8 9 10 11 12 13 14 15 16 17 18 19 20 21 22 23 24 25 26
000
FTUS41 KLWX 171456 AAA
TAFDCA
TAF AMD
KDCA 171456Z 1715/1818 03009KT 6SM -RA BR OVC023
      TEMPO 1715/1717 4SM -SHRA BR BKN009
     FM171700 05005KT 2SM SHRA BR OVC008
     FM180000 08006KT 3SM +SHRA OVC015
     FM181200 05005KT 2SM -SHRA BR OVC008=

USA.gov is the U.S. government's official web portal to all federal, state and local government web resources and services.